Nearby METAR Reports

 

EGEO - Oban, United Kingdom
Distance from station: SSW 18mi, 30km
Updated: 16/09/2019 15:50
NOT Current
Mostly cloudy
Mostly cloudy
 Wind from W
Wind: W 20 mph , 31 km/h
Temperature: 14°C
Dew Point: 9°C
Humidity: 72%
Barometer: 1022 hPa
Clouds: Mostly cloudy
Visibility: 6 miles , 10 km
Cloud details: Mostly cloudy 945 m
2019/09/16 14:50 EGEO 161450Z 28017KT 9999 BKN031 14/09 Q1022
EGPU - Tiree, United Kingdom
Distance from station: WSW 64mi, 103km
Updated: 17/09/2019 23:20
Mostly cloudy
Mostly cloudy
 Wind from SSW
Wind: SSW 7 mph , 11 km/h
Temperature: 12°C
Dew Point: 10°C
Humidity: 88%
Barometer: 1028 hPa
Clouds: Mostly cloudy
Visibility: 6 miles , 10 km
Cloud details: Few Clouds 549 m
Mostly cloudy 884 m
Mostly cloudy 1402 m
2019/09/17 22:20 EGPU 172220Z AUTO 20006KT 170V230 9999 FEW018/// BKN029/// BKN046/// 12/10 Q1028
EGPF - Glasgow, United Kingdom
Distance from station: SSE 66mi, 107km
Updated: 17/09/2019 23:20
Clear
Clear
 Wind from SW
Wind: SW 6 mph , 9 km/h
Temperature: 9°C
Wind Chill: 7°C
Dew Point: 7°C
Humidity: 87%
Barometer: 1029 hPa
Clouds: Clear
Visibility: 6 miles , 10 km
2019/09/17 22:20 EGPF 172220Z AUTO 23005KT 9999 NCD 09/07 Q1029
 
EGPE - Inverness, United Kingdom
Distance from station: NE 71mi, 114km
Updated: 17/09/2019 23:20
Clear
Clear
 Wind from SSW
Wind: SSW 2 mph , 4 km/h
Temperature: 8°C
Dew Point: 7°C
Humidity: 93%
Barometer: 1028 hPa
Clouds: Clear
Visibility: 6 miles , 10 km
2019/09/17 22:20 EGPE 172220Z AUTO 21002KT 9999 NCD 08/07 Q1028
EGPI - Islay/Port Ellen, United Kingdom
Distance from station: SSW 81mi, 131km
Updated: 17/09/2019 23:20
Clear
Clear
 Wind from SE
Wind: SE 2 mph , 4 km/h
Temperature: 10°C
Dew Point: 9°C
Humidity: 94%
Barometer: 1029 hPa
Clouds: Clear
Visibility: 6 miles , 10 km
2019/09/17 22:20 EGPI 172220Z AUTO 13002KT 9999 NCD 10/09 Q1029
EGPN - Dundee/Riverside, United Kingdom
Distance from station: E 86mi, 138km
Updated: 17/09/2019 20:20
NOT Current
Few Clouds
Few Clouds
 Wind from calm
Wind: Calm
Temperature: 12°C
Dew Point: 8°C
Humidity: 77%
Barometer: 1027 hPa
Clouds: Few Clouds
Visibility: 6 miles , 10 km
Cloud details: Few Clouds 1219 m
2019/09/17 19:20 EGPN 171920Z 00000KT 9999 FEW040 12/08 Q1027
 
EGPK - Prestwick, United Kingdom
Distance from station: SSE 88mi, 141km
Updated: 17/09/2019 23:20
Few Clouds
Few Clouds
 Wind from ESE
Wind: ESE 2 mph , 4 km/h
Temperature: 9°C
Dew Point: 6°C
Humidity: 82%
Barometer: 1029 hPa
Clouds: Few Clouds
Visibility: 6 miles , 10 km
Cloud details: Few Clouds 914 m
2019/09/17 22:20 EGPK 172220Z 11002KT 9999 FEW030 09/06 Q1029
EGPH - Edinburgh, United Kingdom
Distance from station: SE 89mi, 143km
Updated: 17/09/2019 23:20
Clear
Clear
 Wind from WSW
Wind: WSW 2 mph , 4 km/h
Temperature: 9°C
Dew Point: 7°C
Humidity: 87%
Barometer: 1028 hPa
Summary: Clear
Visibility: greater than 7 miles , 10 km
2019/09/17 22:20 EGPH 172220Z 25002KT CAVOK 09/07 Q1028
EGQK - RAF Kinloss, United Kingdom
Distance from station: NE 90mi, 144km
Updated: 17/09/2019 22:50
Overcast
Overcast
 Wind from SW
Wind: SW 5 mph , 7 km/h
Temperature: 9°C
Wind Chill: 8°C
Dew Point: 6°C
Humidity: 82%
Barometer: 1028 hPa
Clouds: Overcast
Visibility: 6 miles , 10 km
Cloud details: Overcast 1829 m
2019/09/17 21:50 EGQK 172150Z AUTO 22004KT 9999 OVC060/// 09/06 Q1028 RERA
 
EGEC - Campbeltown, United Kingdom
Distance from station: S 90mi, 145km
Updated: 17/09/2019 17:20
NOT Current
Partly cloudy
Partly cloudy
 Wind from NNW
Wind: NNW 9 mph , 15 km/h
Temperature: 13°C
Dew Point: 7°C
Humidity: 67%
Barometer: 1027 hPa
Clouds: Partly cloudy
Visibility: 6 miles , 10 km
Cloud details: Partly cloudy 975 m
2019/09/17 16:20 EGEC 171620Z 33008KT 9999 SCT032 13/07 Q1027
EGQA - Tain Range, United Kingdom
Distance from station: NNE 91mi, 146km
Updated: 17/09/2019 13:50
NOT Current
Few Clouds
Few Clouds
 Wind from W
Wind: W 15 mph , 24 km/h
Clouds: Few Clouds
Visibility: 6 miles , 10 km
Cloud details: Few Clouds 732 m
2019/09/17 12:50 EGQA 171250Z 28013KT 9999 FEW024 12/// Q1026 BLU
EGQL - RAF Leuchars, United Kingdom
Distance from station: ESE 93mi, 149km
Updated: 17/09/2019 22:50
Clear
Clear
 Wind from N
Wind: N 2 mph , 4 km/h
Temperature: 9°C
Dew Point: 6°C
Humidity: 82%
Barometer: 1028 hPa
Summary: Clear
Visibility: greater than 7 miles , 10 km
2019/09/17 21:50 EGQL 172150Z 35002KT CAVOK 09/06 Q1028 BLU
 
EGPL - Benbecula, United Kingdom
Distance from station: WNW 96mi, 154km
Updated: 17/09/2019 23:20
Drizzle, Overcast
Drizzle, Overcast
 Wind from S
Wind: S 10 mph , 17 km/h
Temperature: 11°C
Dew Point: 10°C
Humidity: 94%
Barometer: 1027 hPa
Summary: Drizzle
Clouds: Overcast
Visibility: 2 miles , 3 km
Cloud details: Overcast 122 m
2019/09/17 22:20 EGPL 172220Z AUTO 17009KT 2500 DZ OVC004/// 11/10 Q1027
EGQS - RAF Lossiemouth, United Kingdom
Distance from station: NE 99mi, 160km
Updated: 17/09/2019 22:50
Clear
Clear
 Wind from SW
Wind: SW 6 mph , 9 km/h
Temperature: 8°C
Wind Chill: 6°C
Dew Point: 6°C
Humidity: 87%
Barometer: 1028 hPa
Summary: Clear
Visibility: greater than 7 miles , 10 km
2019/09/17 21:50 EGQS 172150Z 23005KT CAVOK 08/06 Q1028 RMK BLU
EGPO - Stornoway, United Kingdom
Distance from station: NNW 111mi, 179km
Updated: 17/09/2019 23:20
Mostly cloudy
Mostly cloudy
 Wind from SE
Wind: SE 5 mph , 7 km/h
Temperature: 9°C
Wind Chill: 8°C
Dew Point: 7°C
Humidity: 87%
Barometer: 1027 hPa
Clouds: Mostly cloudy
Visibility: 6 miles , 10 km
Cloud details: Few Clouds 213 m
Mostly cloudy 427 m
Mostly cloudy 671 m
2019/09/17 22:20 EGPO 172220Z AUTO 13004KT 080V160 9999 FEW007/// BKN014/// BKN022/// 09/07 Q1027
 
EGPD - Aberdeen/Dyce, United Kingdom
Distance from station: ENE 118mi, 190km
Updated: 17/09/2019 23:20
Clear
Clear
 Wind from W
Wind: W 6 mph , 9 km/h
Temperature: 9°C
Wind Chill: 7°C
Dew Point: 5°C
Humidity: 76%
Barometer: 1028 hPa
Clouds: Clear
Visibility: 6 miles , 10 km
2019/09/17 22:20 EGPD 172220Z AUTO 28005KT 9999 NCD 09/05 Q1028 NOSIG
EGAE - Eglinton/Londond, United Kingdom
Distance from station: SSW 138mi, 222km
Updated: 17/09/2019 23:20
Few Clouds
Few Clouds
 Wind from varies
Wind: varies 2 mph , 4 km/h
Temperature: 10°C
Dew Point: 9°C
Humidity: 94%
Barometer: 1029 hPa
Clouds: Few Clouds
Visibility: 6 miles , 10 km
Cloud details: Few Clouds 1463 m
2019/09/17 22:20 EGAE 172220Z VRB02KT 9999 FEW048 10/09 Q1029
EGPC - Wick, United Kingdom
Distance from station: NNE 144mi, 232km
Updated: 17/09/2019 23:20
Mostly cloudy
Mostly cloudy
 Wind from W
Wind: W 3 mph , 6 km/h
Temperature: 8°C
Dew Point: 6°C
Humidity: 87%
Barometer: 1028 hPa
Clouds: Mostly cloudy
Visibility: 6 miles , 10 km
Cloud details: Mostly cloudy 1372 m
2019/09/17 22:20 EGPC 172220Z AUTO 27003KT 9999 BKN045/// 08/06 Q1028

Metar display script from Saratoga-Weather.org